Richfield, New York
Current Conditions -  °F | °C
As of 7:53 AM on Sunday 21 Dec 2014 (Local Time) from KRME Reporting Station
Overcast Overcast  
Wind Chill: 24°   Ceiling: 3300
Heat Index: 24°   Visibility: 10mi
Dew Point: 20°   Wind: 3mph
Humidity: 84%   Direction: 100°E
Pressure: 30.33"   Gusts: NA
Location:  42.8523°N, 74.9958°W
Report Text: KRME 211253Z 10003KT 10SM OVC033 M04/M07 A3033 RMK AO2 SLP277 T10441067
Loading
Personal Weather Stations






























Interactive Weather Map New forecast layout! Learn more

10-Day Weather Forecast

Advertisements
Track Severe Weather on mobile